sensor_id;sensor_type;location;lat;lon;timestamp;P1;durP1;ratioP1;P2;durP2;ratioP2
1300;SDS011;67431;48.806;9.160;2023-02-18T00:02:07;0.90;;;0.80;;
1300;SDS011;67431;48.806;9.160;2023-02-18T00:04:33;0.60;;;0.60;;
1300;SDS011;67431;48.806;9.160;2023-02-18T00:07:00;0.60;;;0.60;;
1300;SDS011;67431;48.806;9.160;2023-02-18T00:09:26;3.70;;;0.80;;
1300;SDS011;67431;48.806;9.160;2023-02-18T00:11:52;1.07;;;0.70;;
1300;SDS011;67431;48.806;9.160;2023-02-18T00:14:18;0.90;;;0.90;;
1300;SDS011;67431;48.806;9.160;2023-02-18T00:16:44;0.70;;;0.70;;
1300;SDS011;67431;48.806;9.160;2023-02-18T00:19:12;0.87;;;0.60;;
1300;SDS011;67431;48.806;9.160;2023-02-18T00:21:40;0.60;;;0.53;;
1300;SDS011;67431;48.806;9.160;2023-02-18T00:24:06;0.87;;;0.80;;
1300;SDS011;67431;48.806;9.160;2023-02-18T00:26:34;1.03;;;0.60;;
1300;SDS011;67431;48.806;9.160;2023-02-18T00:29:00;1.00;;;1.00;;
1300;SDS011;67431;48.806;9.160;2023-02-18T00:31:27;1.37;;;0.77;;
1300;SDS011;67431;48.806;9.160;2023-02-18T00:33:58;2.27;;;0.80;;
1300;SDS011;67431;48.806;9.160;2023-02-18T00:36:26;0.60;;;0.60;;
1300;SDS011;67431;48.806;9.160;2023-02-18T00:38:57;0.80;;;0.70;;
1300;SDS011;67431;48.806;9.160;2023-02-18T00:41:24;0.87;;;0.87;;
1300;SDS011;67431;48.806;9.160;2023-02-18T00:46:34;0.70;;;0.70;;
1300;SDS011;67431;48.806;9.160;2023-02-18T00:49:03;0.90;;;0.70;;
1300;SDS011;67431;48.806;9.160;2023-02-18T00:51:33;0.80;;;0.80;;
1300;SDS011;67431;48.806;9.160;2023-02-18T00:54:03;1.70;;;0.70;;
1300;SDS011;67431;48.806;9.160;2023-02-18T00:56:30;0.80;;;0.80;;
1300;SDS011;67431;48.806;9.160;2023-02-18T00:59:08;0.93;;;0.93;;
1300;SDS011;67431;48.806;9.160;2023-02-18T01:01:44;0.80;;;0.80;;
1300;SDS011;67431;48.806;9.160;2023-02-18T01:04:14;1.33;;;1.00;;
1300;SDS011;67431;48.806;9.160;2023-02-18T01:06:45;1.90;;;0.90;;
1300;SDS011;67431;48.806;9.160;2023-02-18T01:09:15;1.77;;;1.20;;
1300;SDS011;67431;48.806;9.160;2023-02-18T01:11:42;0.93;;;0.80;;
1300;SDS011;67431;48.806;9.160;2023-02-18T01:30:23;0.90;;;0.90;;
1300;SDS011;67431;48.806;9.160;2023-02-18T01:32:54;1.00;;;1.00;;
1300;SDS011;67431;48.806;9.160;2023-02-18T01:35:23;0.90;;;0.90;;
1300;SDS011;67431;48.806;9.160;2023-02-18T01:37:50;1.03;;;1.03;;
1300;SDS011;67431;48.806;9.160;2023-02-18T01:40:20;0.90;;;0.90;;
1300;SDS011;67431;48.806;9.160;2023-02-18T01:48:27;1.10;;;0.80;;
1300;SDS011;67431;48.806;9.160;2023-02-18T01:51:21;1.30;;;1.20;;
1300;SDS011;67431;48.806;9.160;2023-02-18T01:53:55;1.10;;;1.10;;
1300;SDS011;67431;48.806;9.160;2023-02-18T01:56:40;1.00;;;1.00;;
1300;SDS011;67431;48.806;9.160;2023-02-18T01:59:22;0.80;;;0.80;;
1300;SDS011;67431;48.806;9.160;2023-02-18T02:02:16;0.93;;;0.93;;
1300;SDS011;67431;48.806;9.160;2023-02-18T02:04:45;1.93;;;1.10;;
1300;SDS011;67431;48.806;9.160;2023-02-18T02:07:16;1.20;;;1.20;;
1300;SDS011;67431;48.806;9.160;2023-02-18T02:09:49;1.60;;;1.50;;
1300;SDS011;67431;48.806;9.160;2023-02-18T02:15:23;1.63;;;1.53;;
1300;SDS011;67431;48.806;9.160;2023-02-18T02:18:35;1.27;;;0.97;;
1300;SDS011;67431;48.806;9.160;2023-02-18T02:46:37;1.40;;;1.30;;
1300;SDS011;67431;48.806;9.160;2023-02-18T02:49:13;1.60;;;1.50;;
1300;SDS011;67431;48.806;9.160;2023-02-18T02:55:55;1.43;;;1.30;;
1300;SDS011;67431;48.806;9.160;2023-02-18T02:58:23;1.40;;;1.30;;
1300;SDS011;67431;48.806;9.160;2023-02-18T03:12:29;1.47;;;1.37;;
1300;SDS011;67431;48.806;9.160;2023-02-18T03:15:23;1.70;;;1.23;;
1300;SDS011;67431;48.806;9.160;2023-02-18T03:23:36;1.60;;;1.50;;
1300;SDS011;67431;48.806;9.160;2023-02-18T03:26:12;1.57;;;1.47;;
1300;SDS011;67431;48.806;9.160;2023-02-18T03:28:44;1.53;;;1.43;;
1300;SDS011;67431;48.806;9.160;2023-02-18T03:31:14;1.97;;;1.70;;
1300;SDS011;67431;48.806;9.160;2023-02-18T03:33:51;1.53;;;1.43;;
1300;SDS011;67431;48.806;9.160;2023-02-18T03:36:31;1.40;;;1.30;;
1300;SDS011;67431;48.806;9.160;2023-02-18T03:39:08;1.03;;;1.03;;
1300;SDS011;67431;48.806;9.160;2023-02-18T03:41:38;1.67;;;1.57;;
1300;SDS011;67431;48.806;9.160;2023-02-18T03:44:05;1.43;;;1.33;;
1300;SDS011;67431;48.806;9.160;2023-02-18T03:46:34;1.83;;;1.27;;
1300;SDS011;67431;48.806;9.160;2023-02-18T03:49:03;1.30;;;1.20;;
1300;SDS011;67431;48.806;9.160;2023-02-18T03:51:30;1.50;;;1.40;;
1300;SDS011;67431;48.806;9.160;2023-02-18T03:53:56;1.17;;;1.10;;
1300;SDS011;67431;48.806;9.160;2023-02-18T03:56:22;1.33;;;1.23;;
1300;SDS011;67431;48.806;9.160;2023-02-18T03:58:48;1.43;;;1.17;;
1300;SDS011;67431;48.806;9.160;2023-02-18T04:01:15;4.23;;;1.30;;
1300;SDS011;67431;48.806;9.160;2023-02-18T04:03:42;2.20;;;1.43;;
1300;SDS011;67431;48.806;9.160;2023-02-18T04:06:08;1.90;;;1.80;;
1300;SDS011;67431;48.806;9.160;2023-02-18T04:08:34;1.73;;;1.40;;
1300;SDS011;67431;48.806;9.160;2023-02-18T04:11:02;1.53;;;1.43;;
1300;SDS011;67431;48.806;9.160;2023-02-18T04:13:29;1.10;;;1.10;;
1300;SDS011;67431;48.806;9.160;2023-02-18T04:15:55;1.13;;;1.03;;
1300;SDS011;67431;48.806;9.160;2023-02-18T04:18:21;1.30;;;1.20;;
1300;SDS011;67431;48.806;9.160;2023-02-18T04:20:48;0.80;;;0.80;;
1300;SDS011;67431;48.806;9.160;2023-02-18T04:23:15;1.40;;;1.10;;
1300;SDS011;67431;48.806;9.160;2023-02-18T04:25:41;1.17;;;1.07;;
1300;SDS011;67431;48.806;9.160;2023-02-18T04:28:09;1.43;;;0.73;;
1300;SDS011;67431;48.806;9.160;2023-02-18T04:30:37;1.30;;;1.20;;
1300;SDS011;67431;48.806;9.160;2023-02-18T04:33:03;1.03;;;1.03;;
1300;SDS011;67431;48.806;9.160;2023-02-18T04:35:29;0.80;;;0.80;;
1300;SDS011;67431;48.806;9.160;2023-02-18T04:37:55;1.60;;;1.00;;
1300;SDS011;67431;48.806;9.160;2023-02-18T04:40:21;1.00;;;1.00;;
1300;SDS011;67431;48.806;9.160;2023-02-18T04:42:49;1.07;;;1.07;;
1300;SDS011;67431;48.806;9.160;2023-02-18T04:45:15;1.37;;;1.23;;
1300;SDS011;67431;48.806;9.160;2023-02-18T04:47:41;2.13;;;1.40;;
1300;SDS011;67431;48.806;9.160;2023-02-18T04:50:07;1.43;;;1.33;;
1300;SDS011;67431;48.806;9.160;2023-02-18T04:52:34;1.40;;;1.30;;
1300;SDS011;67431;48.806;9.160;2023-02-18T04:55:00;1.20;;;1.10;;
1300;SDS011;67431;48.806;9.160;2023-02-18T04:57:25;1.20;;;1.10;;
1300;SDS011;67431;48.806;9.160;2023-02-18T04:59:51;1.60;;;1.27;;
1300;SDS011;67431;48.806;9.160;2023-02-18T05:02:17;1.40;;;1.27;;
1300;SDS011;67431;48.806;9.160;2023-02-18T05:04:43;1.20;;;1.10;;
1300;SDS011;67431;48.806;9.160;2023-02-18T05:07:09;1.30;;;0.97;;
1300;SDS011;67431;48.806;9.160;2023-02-18T05:09:35;1.20;;;1.10;;
1300;SDS011;67431;48.806;9.160;2023-02-18T05:12:01;1.50;;;1.40;;
1300;SDS011;67431;48.806;9.160;2023-02-18T05:14:27;1.43;;;1.03;;
1300;SDS011;67431;48.806;9.160;2023-02-18T05:16:53;0.90;;;0.90;;
1300;SDS011;67431;48.806;9.160;2023-02-18T05:19:19;1.13;;;1.13;;
1300;SDS011;67431;48.806;9.160;2023-02-18T05:21:44;2.70;;;1.40;;
1300;SDS011;67431;48.806;9.160;2023-02-18T05:24:10;2.10;;;1.00;;
1300;SDS011;67431;48.806;9.160;2023-02-18T05:26:36;1.10;;;1.10;;
1300;SDS011;67431;48.806;9.160;2023-02-18T05:29:02;1.60;;;1.07;;
1300;SDS011;67431;48.806;9.160;2023-02-18T05:31:28;1.30;;;1.20;;
1300;SDS011;67431;48.806;9.160;2023-02-18T05:33:55;1.30;;;1.20;;
1300;SDS011;67431;48.806;9.160;2023-02-18T05:36:21;1.33;;;1.23;;
1300;SDS011;67431;48.806;9.160;2023-02-18T05:38:46;2.80;;;1.03;;
1300;SDS011;67431;48.806;9.160;2023-02-18T05:41:12;1.10;;;1.10;;
1300;SDS011;67431;48.806;9.160;2023-02-18T05:43:38;1.30;;;1.20;;
1300;SDS011;67431;48.806;9.160;2023-02-18T05:46:22;1.60;;;1.50;;
1300;SDS011;67431;48.806;9.160;2023-02-18T05:48:48;2.60;;;1.33;;
1300;SDS011;67431;48.806;9.160;2023-02-18T05:51:14;2.93;;;1.20;;
1300;SDS011;67431;48.806;9.160;2023-02-18T05:53:40;1.23;;;1.10;;
1300;SDS011;67431;48.806;9.160;2023-02-18T05:56:06;1.23;;;1.10;;
1300;SDS011;67431;48.806;9.160;2023-02-18T05:58:32;1.43;;;1.20;;
1300;SDS011;67431;48.806;9.160;2023-02-18T06:00:58;1.53;;;1.43;;
1300;SDS011;67431;48.806;9.160;2023-02-18T06:03:23;1.20;;;1.10;;
1300;SDS011;67431;48.806;9.160;2023-02-18T06:05:50;1.13;;;0.87;;
1300;SDS011;67431;48.806;9.160;2023-02-18T06:08:16;1.33;;;1.00;;
1300;SDS011;67431;48.806;9.160;2023-02-18T06:10:44;1.33;;;1.00;;
1300;SDS011;67431;48.806;9.160;2023-02-18T06:13:11;1.00;;;0.90;;
1300;SDS011;67431;48.806;9.160;2023-02-18T06:15:37;0.73;;;0.73;;
1300;SDS011;67431;48.806;9.160;2023-02-18T06:18:04;0.80;;;0.80;;
1300;SDS011;67431;48.806;9.160;2023-02-18T06:20:31;1.50;;;1.40;;
1300;SDS011;67431;48.806;9.160;2023-02-18T06:22:57;1.33;;;1.20;;
1300;SDS011;67431;48.806;9.160;2023-02-18T06:25:23;1.70;;;1.60;;
1300;SDS011;67431;48.806;9.160;2023-02-18T06:27:49;1.60;;;1.50;;
1300;SDS011;67431;48.806;9.160;2023-02-18T06:30:15;3.60;;;1.37;;
1300;SDS011;67431;48.806;9.160;2023-02-18T06:32:41;3.53;;;3.17;;
1300;SDS011;67431;48.806;9.160;2023-02-18T06:35:06;3.23;;;2.40;;
1300;SDS011;67431;48.806;9.160;2023-02-18T06:37:32;1.40;;;1.30;;
1300;SDS011;67431;48.806;9.160;2023-02-18T06:39:58;2.27;;;2.07;;
1300;SDS011;67431;48.806;9.160;2023-02-18T06:42:24;1.70;;;1.60;;
1300;SDS011;67431;48.806;9.160;2023-02-18T06:44:50;1.70;;;1.60;;
1300;SDS011;67431;48.806;9.160;2023-02-18T06:47:15;1.50;;;1.40;;
1300;SDS011;67431;48.806;9.160;2023-02-18T06:49:41;1.70;;;1.30;;
1300;SDS011;67431;48.806;9.160;2023-02-18T06:52:07;1.60;;;1.50;;
1300;SDS011;67431;48.806;9.160;2023-02-18T06:54:33;1.43;;;1.33;;
1300;SDS011;67431;48.806;9.160;2023-02-18T06:56:59;1.27;;;1.27;;
1300;SDS011;67431;48.806;9.160;2023-02-18T06:59:24;1.23;;;1.10;;
1300;SDS011;67431;48.806;9.160;2023-02-18T07:01:50;1.30;;;1.20;;
1300;SDS011;67431;48.806;9.160;2023-02-18T07:04:16;1.40;;;1.30;;
1300;SDS011;67431;48.806;9.160;2023-02-18T07:06:42;1.03;;;0.93;;
1300;SDS011;67431;48.806;9.160;2023-02-18T07:09:07;1.10;;;1.10;;
1300;SDS011;67431;48.806;9.160;2023-02-18T07:11:33;1.17;;;1.10;;
1300;SDS011;67431;48.806;9.160;2023-02-18T07:13:59;1.17;;;1.07;;
1300;SDS011;67431;48.806;9.160;2023-02-18T07:16:25;0.70;;;0.70;;
1300;SDS011;67431;48.806;9.160;2023-02-18T07:18:51;1.20;;;1.10;;
1300;SDS011;67431;48.806;9.160;2023-02-18T07:21:17;1.13;;;1.03;;
1300;SDS011;67431;48.806;9.160;2023-02-18T07:23:43;1.00;;;1.00;;
1300;SDS011;67431;48.806;9.160;2023-02-18T07:26:10;1.10;;;1.10;;
1300;SDS011;67431;48.806;9.160;2023-02-18T07:28:37;1.70;;;1.60;;
1300;SDS011;67431;48.806;9.160;2023-02-18T07:31:04;1.47;;;1.37;;
1300;SDS011;67431;48.806;9.160;2023-02-18T07:33:30;0.83;;;0.83;;
1300;SDS011;67431;48.806;9.160;2023-02-18T07:35:56;1.97;;;1.33;;
1300;SDS011;67431;48.806;9.160;2023-02-18T07:38:23;1.40;;;1.30;;
1300;SDS011;67431;48.806;9.160;2023-02-18T07:40:50;1.73;;;1.63;;
1300;SDS011;67431;48.806;9.160;2023-02-18T07:43:17;1.50;;;1.40;;
1300;SDS011;67431;48.806;9.160;2023-02-18T07:45:43;1.50;;;1.30;;
1300;SDS011;67431;48.806;9.160;2023-02-18T07:48:10;1.40;;;1.30;;
1300;SDS011;67431;48.806;9.160;2023-02-18T07:50:38;1.57;;;1.47;;
1300;SDS011;67431;48.806;9.160;2023-02-18T07:53:04;2.00;;;1.57;;
1300;SDS011;67431;48.806;9.160;2023-02-18T07:55:31;2.93;;;1.50;;
1300;SDS011;67431;48.806;9.160;2023-02-18T08:00:48;1.40;;;1.30;;
1300;SDS011;67431;48.806;9.160;2023-02-18T08:03:17;2.13;;;1.43;;
1300;SDS011;67431;48.806;9.160;2023-02-18T08:05:46;1.97;;;1.50;;
1300;SDS011;67431;48.806;9.160;2023-02-18T08:08:17;1.43;;;1.30;;
1300;SDS011;67431;48.806;9.160;2023-02-18T08:10:45;3.10;;;1.27;;
1300;SDS011;67431;48.806;9.160;2023-02-18T08:13:11;1.33;;;1.33;;
1300;SDS011;67431;48.806;9.160;2023-02-18T08:15:38;1.50;;;1.10;;
1300;SDS011;67431;48.806;9.160;2023-02-18T08:18:04;1.50;;;1.40;;
1300;SDS011;67431;48.806;9.160;2023-02-18T08:20:34;1.43;;;1.27;;
1300;SDS011;67431;48.806;9.160;2023-02-18T08:23:01;2.00;;;1.70;;
1300;SDS011;67431;48.806;9.160;2023-02-18T08:25:28;1.50;;;1.40;;
1300;SDS011;67431;48.806;9.160;2023-02-18T08:27:58;1.47;;;1.37;;
1300;SDS011;67431;48.806;9.160;2023-02-18T08:30:25;1.20;;;1.10;;
1300;SDS011;67431;48.806;9.160;2023-02-18T08:32:53;2.10;;;1.67;;
1300;SDS011;67431;48.806;9.160;2023-02-18T08:35:23;1.80;;;1.30;;
1300;SDS011;67431;48.806;9.160;2023-02-18T08:37:55;4.17;;;1.37;;
1300;SDS011;67431;48.806;9.160;2023-02-18T08:40:21;1.90;;;1.30;;
1300;SDS011;67431;48.806;9.160;2023-02-18T08:42:46;2.00;;;1.10;;
1300;SDS011;67431;48.806;9.160;2023-02-18T08:45:12;1.40;;;1.30;;
1300;SDS011;67431;48.806;9.160;2023-02-18T08:47:46;1.23;;;1.20;;
1300;SDS011;67431;48.806;9.160;2023-02-18T08:50:12;1.20;;;1.20;;
1300;SDS011;67431;48.806;9.160;2023-02-18T08:52:39;1.50;;;1.40;;
1300;SDS011;67431;48.806;9.160;2023-02-18T08:55:15;1.20;;;1.10;;
1300;SDS011;67431;48.806;9.160;2023-02-18T08:57:46;2.03;;;1.60;;
1300;SDS011;67431;48.806;9.160;2023-02-18T09:00:13;1.53;;;1.30;;
1300;SDS011;67431;48.806;9.160;2023-02-18T09:02:40;3.73;;;1.50;;
1300;SDS011;67431;48.806;9.160;2023-02-18T09:05:06;1.10;;;1.00;;
1300;SDS011;67431;48.806;9.160;2023-02-18T09:07:34;1.23;;;1.13;;
1300;SDS011;67431;48.806;9.160;2023-02-18T09:10:00;1.90;;;1.53;;
1300;SDS011;67431;48.806;9.160;2023-02-18T09:12:27;1.33;;;1.00;;
1300;SDS011;67431;48.806;9.160;2023-02-18T09:14:54;2.20;;;0.90;;
1300;SDS011;67431;48.806;9.160;2023-02-18T09:17:20;1.67;;;1.30;;
1300;SDS011;67431;48.806;9.160;2023-02-18T09:19:46;2.10;;;0.83;;
1300;SDS011;67431;48.806;9.160;2023-02-18T09:22:13;1.07;;;1.07;;
1300;SDS011;67431;48.806;9.160;2023-02-18T09:24:44;2.77;;;1.03;;
1300;SDS011;67431;48.806;9.160;2023-02-18T09:27:09;1.17;;;1.17;;
1300;SDS011;67431;48.806;9.160;2023-02-18T09:29:39;1.10;;;1.00;;
1300;SDS011;67431;48.806;9.160;2023-02-18T09:32:05;1.43;;;1.37;;
1300;SDS011;67431;48.806;9.160;2023-02-18T09:34:32;3.73;;;1.10;;
1300;SDS011;67431;48.806;9.160;2023-02-18T09:36:58;0.97;;;0.97;;
1300;SDS011;67431;48.806;9.160;2023-02-18T09:39:24;3.33;;;1.20;;
1300;SDS011;67431;48.806;9.160;2023-02-18T09:41:56;2.33;;;1.80;;
1300;SDS011;67431;48.806;9.160;2023-02-18T09:44:31;1.63;;;1.40;;
1300;SDS011;67431;48.806;9.160;2023-02-18T09:47:15;2.63;;;1.17;;
1300;SDS011;67431;48.806;9.160;2023-02-18T09:50:23;1.00;;;1.00;;
1300;SDS011;67431;48.806;9.160;2023-02-18T09:52:53;1.20;;;1.17;;
1300;SDS011;67431;48.806;9.160;2023-02-18T09:55:23;1.17;;;1.07;;
1300;SDS011;67431;48.806;9.160;2023-02-18T09:57:54;1.23;;;1.13;;
1300;SDS011;67431;48.806;9.160;2023-02-18T10:02:56;1.17;;;1.07;;
1300;SDS011;67431;48.806;9.160;2023-02-18T10:05:50;1.37;;;1.27;;
1300;SDS011;67431;48.806;9.160;2023-02-18T10:08:25;1.30;;;1.00;;
1300;SDS011;67431;48.806;9.160;2023-02-18T10:10:53;1.33;;;1.23;;
1300;SDS011;67431;48.806;9.160;2023-02-18T10:13:20;1.47;;;1.37;;
1300;SDS011;67431;48.806;9.160;2023-02-18T10:15:53;1.73;;;1.00;;
1300;SDS011;67431;48.806;9.160;2023-02-18T10:18:30;1.20;;;1.10;;
1300;SDS011;67431;48.806;9.160;2023-02-18T10:21:06;1.00;;;1.00;;
1300;SDS011;67431;48.806;9.160;2023-02-18T10:23:36;1.40;;;1.07;;
1300;SDS011;67431;48.806;9.160;2023-02-18T10:26:06;3.60;;;1.30;;
1300;SDS011;67431;48.806;9.160;2023-02-18T10:28:36;0.90;;;0.90;;
1300;SDS011;67431;48.806;9.160;2023-02-18T10:31:04;3.13;;;1.77;;
1300;SDS011;67431;48.806;9.160;2023-02-18T10:48:40;1.40;;;1.30;;
1300;SDS011;67431;48.806;9.160;2023-02-18T10:51:19;1.20;;;1.10;;
1300;SDS011;67431;48.806;9.160;2023-02-18T10:53:51;1.40;;;1.20;;
1300;SDS011;67431;48.806;9.160;2023-02-18T11:01:39;0.90;;;0.90;;
1300;SDS011;67431;48.806;9.160;2023-02-18T11:04:52;0.80;;;0.80;;
1300;SDS011;67431;48.806;9.160;2023-02-18T11:08:01;2.30;;;1.20;;
1300;SDS011;67431;48.806;9.160;2023-02-18T11:10:52;1.00;;;0.90;;
1300;SDS011;67431;48.806;9.160;2023-02-18T11:13:23;0.70;;;0.70;;
1300;SDS011;67431;48.806;9.160;2023-02-18T11:20:55;2.73;;;1.13;;
1300;SDS011;67431;48.806;9.160;2023-02-18T11:23:22;2.03;;;0.90;;
1300;SDS011;67431;48.806;9.160;2023-02-18T11:28:42;1.30;;;1.10;;
1300;SDS011;67431;48.806;9.160;2023-02-18T11:31:11;1.70;;;0.97;;
1300;SDS011;67431;48.806;9.160;2023-02-18T11:33:50;1.23;;;1.20;;
1300;SDS011;67431;48.806;9.160;2023-02-18T11:36:23;1.60;;;1.03;;
1300;SDS011;67431;48.806;9.160;2023-02-18T11:38:54;2.00;;;0.97;;
1300;SDS011;67431;48.806;9.160;2023-02-18T11:41:34;1.43;;;1.10;;
1300;SDS011;67431;48.806;9.160;2023-02-18T11:44:02;1.30;;;1.20;;
1300;SDS011;67431;48.806;9.160;2023-02-18T11:46:31;0.80;;;0.80;;
1300;SDS011;67431;48.806;9.160;2023-02-18T11:49:09;1.00;;;0.87;;
1300;SDS011;67431;48.806;9.160;2023-02-18T11:51:45;1.20;;;0.97;;
1300;SDS011;67431;48.806;9.160;2023-02-18T11:56:57;1.00;;;0.90;;
1300;SDS011;67431;48.806;9.160;2023-02-18T11:59:27;2.00;;;1.30;;
1300;SDS011;67431;48.806;9.160;2023-02-18T12:02:02;1.30;;;1.10;;
1300;SDS011;67431;48.806;9.160;2023-02-18T12:04:41;1.60;;;1.50;;
1300;SDS011;67431;48.806;9.160;2023-02-18T12:07:29;1.30;;;1.20;;
1300;SDS011;67431;48.806;9.160;2023-02-18T12:13:09;1.77;;;1.10;;
1300;SDS011;67431;48.806;9.160;2023-02-18T12:29:31;1.67;;;1.47;;
1300;SDS011;67431;48.806;9.160;2023-02-18T12:34:47;1.43;;;1.33;;
1300;SDS011;67431;48.806;9.160;2023-02-18T12:40:26;1.77;;;1.67;;
1300;SDS011;67431;48.806;9.160;2023-02-18T12:46:33;2.07;;;1.60;;
1300;SDS011;67431;48.806;9.160;2023-02-18T12:52:19;1.43;;;1.33;;
1300;SDS011;67431;48.806;9.160;2023-02-18T12:54:54;2.50;;;1.40;;
1300;SDS011;67431;48.806;9.160;2023-02-18T13:06:45;2.47;;;1.43;;
1300;SDS011;67431;48.806;9.160;2023-02-18T13:09:25;2.37;;;1.77;;
1300;SDS011;67431;48.806;9.160;2023-02-18T13:12:07;1.80;;;1.70;;
1300;SDS011;67431;48.806;9.160;2023-02-18T13:15:16;2.13;;;1.90;;
1300;SDS011;67431;48.806;9.160;2023-02-18T13:17:49;2.53;;;1.80;;
1300;SDS011;67431;48.806;9.160;2023-02-18T13:20:20;1.77;;;1.67;;
1300;SDS011;67431;48.806;9.160;2023-02-18T13:22:50;2.73;;;1.83;;
1300;SDS011;67431;48.806;9.160;2023-02-18T13:25:17;3.73;;;1.80;;
1300;SDS011;67431;48.806;9.160;2023-02-18T13:27:53;2.00;;;1.90;;
1300;SDS011;67431;48.806;9.160;2023-02-18T13:30:51;2.27;;;2.07;;
1300;SDS011;67431;48.806;9.160;2023-02-18T13:34:00;1.80;;;1.70;;
1300;SDS011;67431;48.806;9.160;2023-02-18T13:39:26;2.20;;;1.40;;
1300;SDS011;67431;48.806;9.160;2023-02-18T13:42:09;1.80;;;1.70;;
1300;SDS011;67431;48.806;9.160;2023-02-18T13:44:38;1.90;;;1.80;;
1300;SDS011;67431;48.806;9.160;2023-02-18T13:47:05;2.20;;;2.00;;
1300;SDS011;67431;48.806;9.160;2023-02-18T13:49:33;1.53;;;1.43;;
1300;SDS011;67431;48.806;9.160;2023-02-18T13:52:02;3.83;;;1.90;;
1300;SDS011;67431;48.806;9.160;2023-02-18T13:54:44;2.17;;;2.00;;
1300;SDS011;67431;48.806;9.160;2023-02-18T13:57:13;1.63;;;1.53;;
1300;SDS011;67431;48.806;9.160;2023-02-18T14:12:41;2.17;;;2.03;;
1300;SDS011;67431;48.806;9.160;2023-02-18T14:25:41;2.03;;;1.83;;
1300;SDS011;67431;48.806;9.160;2023-02-18T14:31:00;1.60;;;1.50;;
1300;SDS011;67431;48.806;9.160;2023-02-18T14:33:43;1.83;;;1.73;;
1300;SDS011;67431;48.806;9.160;2023-02-18T14:36:26;1.90;;;1.80;;
1300;SDS011;67431;48.806;9.160;2023-02-18T14:44:31;1.80;;;1.70;;
1300;SDS011;67431;48.806;9.160;2023-02-18T14:50:12;1.67;;;1.57;;
1300;SDS011;67431;48.806;9.160;2023-02-18T14:52:51;1.63;;;1.27;;
1300;SDS011;67431;48.806;9.160;2023-02-18T14:55:23;1.40;;;1.30;;
1300;SDS011;67431;48.806;9.160;2023-02-18T14:58:03;2.70;;;1.50;;
1300;SDS011;67431;48.806;9.160;2023-02-18T15:00:45;1.47;;;1.37;;
1300;SDS011;67431;48.806;9.160;2023-02-18T15:03:15;1.97;;;1.57;;
1300;SDS011;67431;48.806;9.160;2023-02-18T15:05:43;2.30;;;2.10;;
1300;SDS011;67431;48.806;9.160;2023-02-18T15:13:16;1.37;;;1.27;;
1300;SDS011;67431;48.806;9.160;2023-02-18T15:15:43;2.07;;;1.60;;
1300;SDS011;67431;48.806;9.160;2023-02-18T15:18:22;1.83;;;1.73;;
1300;SDS011;67431;48.806;9.160;2023-02-18T15:21:23;2.83;;;1.67;;
1300;SDS011;67431;48.806;9.160;2023-02-18T15:23:50;2.17;;;1.97;;
1300;SDS011;67431;48.806;9.160;2023-02-18T15:26:16;2.07;;;1.97;;
1300;SDS011;67431;48.806;9.160;2023-02-18T15:28:50;2.23;;;2.13;;
1300;SDS011;67431;48.806;9.160;2023-02-18T15:31:23;2.07;;;1.87;;
1300;SDS011;67431;48.806;9.160;2023-02-18T15:33:54;2.10;;;1.90;;
1300;SDS011;67431;48.806;9.160;2023-02-18T15:36:20;2.13;;;1.93;;
1300;SDS011;67431;48.806;9.160;2023-02-18T15:38:46;1.97;;;1.40;;
1300;SDS011;67431;48.806;9.160;2023-02-18T15:41:13;2.10;;;2.00;;
1300;SDS011;67431;48.806;9.160;2023-02-18T15:43:54;2.13;;;1.93;;
1300;SDS011;67431;48.806;9.160;2023-02-18T15:46:25;1.90;;;1.80;;
1300;SDS011;67431;48.806;9.160;2023-02-18T15:48:52;2.00;;;1.80;;
1300;SDS011;67431;48.806;9.160;2023-02-18T15:51:21;1.83;;;1.73;;
1300;SDS011;67431;48.806;9.160;2023-02-18T15:53:52;2.30;;;1.90;;
1300;SDS011;67431;48.806;9.160;2023-02-18T16:02:11;2.73;;;2.20;;
1300;SDS011;67431;48.806;9.160;2023-02-18T16:04:45;1.70;;;1.60;;
1300;SDS011;67431;48.806;9.160;2023-02-18T16:12:38;2.30;;;2.10;;
1300;SDS011;67431;48.806;9.160;2023-02-18T16:15:05;1.90;;;1.80;;
1300;SDS011;67431;48.806;9.160;2023-02-18T16:17:34;1.63;;;1.53;;
1300;SDS011;67431;48.806;9.160;2023-02-18T16:20:01;1.70;;;1.60;;
1300;SDS011;67431;48.806;9.160;2023-02-18T16:22:43;1.53;;;1.50;;
1300;SDS011;67431;48.806;9.160;2023-02-18T16:25:26;1.60;;;1.50;;
1300;SDS011;67431;48.806;9.160;2023-02-18T16:28:24;1.53;;;1.43;;
1300;SDS011;67431;48.806;9.160;2023-02-18T16:30:54;1.90;;;1.80;;
1300;SDS011;67431;48.806;9.160;2023-02-18T16:33:20;2.87;;;2.40;;
1300;SDS011;67431;48.806;9.160;2023-02-18T16:35:46;2.90;;;2.13;;
1300;SDS011;67431;48.806;9.160;2023-02-18T16:38:15;1.87;;;1.77;;
1300;SDS011;67431;48.806;9.160;2023-02-18T16:40:46;2.40;;;2.20;;
1300;SDS011;67431;48.806;9.160;2023-02-18T16:43:16;3.50;;;3.20;;
1300;SDS011;67431;48.806;9.160;2023-02-18T16:45:47;2.40;;;2.20;;
1300;SDS011;67431;48.806;9.160;2023-02-18T16:48:39;1.70;;;1.60;;
1300;SDS011;67431;48.806;9.160;2023-02-18T16:51:06;1.60;;;1.50;;
1300;SDS011;67431;48.806;9.160;2023-02-18T16:53:46;2.30;;;2.10;;
1300;SDS011;67431;48.806;9.160;2023-02-18T16:56:15;2.30;;;2.20;;
1300;SDS011;67431;48.806;9.160;2023-02-18T16:58:43;2.87;;;2.43;;
1300;SDS011;67431;48.806;9.160;2023-02-18T17:01:14;2.20;;;2.10;;
1300;SDS011;67431;48.806;9.160;2023-02-18T17:03:48;2.40;;;2.20;;
1300;SDS011;67431;48.806;9.160;2023-02-18T17:06:14;2.20;;;2.00;;
1300;SDS011;67431;48.806;9.160;2023-02-18T17:08:41;2.40;;;1.83;;
1300;SDS011;67431;48.806;9.160;2023-02-18T17:11:08;2.20;;;2.00;;
1300;SDS011;67431;48.806;9.160;2023-02-18T17:13:42;1.73;;;1.63;;
1300;SDS011;67431;48.806;9.160;2023-02-18T17:16:08;1.60;;;1.40;;
1300;SDS011;67431;48.806;9.160;2023-02-18T17:18:34;2.40;;;2.20;;
1300;SDS011;67431;48.806;9.160;2023-02-18T17:21:00;3.10;;;1.93;;
1300;SDS011;67431;48.806;9.160;2023-02-18T17:23:27;2.13;;;1.93;;
1300;SDS011;67431;48.806;9.160;2023-02-18T17:25:53;2.73;;;1.90;;
1300;SDS011;67431;48.806;9.160;2023-02-18T17:28:19;2.13;;;1.93;;
1300;SDS011;67431;48.806;9.160;2023-02-18T17:30:46;1.73;;;1.63;;
1300;SDS011;67431;48.806;9.160;2023-02-18T17:33:20;2.20;;;2.00;;
1300;SDS011;67431;48.806;9.160;2023-02-18T17:35:46;2.53;;;2.33;;
1300;SDS011;67431;48.806;9.160;2023-02-18T17:38:13;1.97;;;1.87;;
1300;SDS011;67431;48.806;9.160;2023-02-18T17:40:41;2.90;;;2.33;;
1300;SDS011;67431;48.806;9.160;2023-02-18T17:43:09;2.70;;;2.50;;
1300;SDS011;67431;48.806;9.160;2023-02-18T17:45:42;2.17;;;1.97;;
1300;SDS011;67431;48.806;9.160;2023-02-18T17:48:19;2.70;;;2.00;;
1300;SDS011;67431;48.806;9.160;2023-02-18T17:50:45;2.47;;;2.27;;
1300;SDS011;67431;48.806;9.160;2023-02-18T17:53:11;2.80;;;2.50;;
1300;SDS011;67431;48.806;9.160;2023-02-18T17:55:38;2.50;;;1.93;;
1300;SDS011;67431;48.806;9.160;2023-02-18T17:58:05;2.50;;;2.30;;
1300;SDS011;67431;48.806;9.160;2023-02-18T18:00:33;4.47;;;3.20;;
1300;SDS011;67431;48.806;9.160;2023-02-18T18:03:00;4.10;;;2.70;;
1300;SDS011;67431;48.806;9.160;2023-02-18T18:05:31;2.87;;;2.63;;
1300;SDS011;67431;48.806;9.160;2023-02-18T18:08:03;4.13;;;2.23;;
1300;SDS011;67431;48.806;9.160;2023-02-18T18:10:37;2.47;;;2.27;;
1300;SDS011;67431;48.806;9.160;2023-02-18T18:13:06;2.60;;;2.40;;
1300;SDS011;67431;48.806;9.160;2023-02-18T18:15:38;2.30;;;2.03;;
1300;SDS011;67431;48.806;9.160;2023-02-18T18:18:05;2.60;;;2.40;;
1300;SDS011;67431;48.806;9.160;2023-02-18T18:20:32;2.63;;;2.43;;
1300;SDS011;67431;48.806;9.160;2023-02-18T18:23:00;2.57;;;2.33;;
1300;SDS011;67431;48.806;9.160;2023-02-18T18:25:29;2.57;;;2.37;;
1300;SDS011;67431;48.806;9.160;2023-02-18T18:28:00;3.77;;;2.53;;
1300;SDS011;67431;48.806;9.160;2023-02-18T18:30:27;2.20;;;2.00;;
1300;SDS011;67431;48.806;9.160;2023-02-18T18:32:54;2.73;;;2.30;;
1300;SDS011;67431;48.806;9.160;2023-02-18T18:35:29;3.07;;;2.60;;
1300;SDS011;67431;48.806;9.160;2023-02-18T18:37:59;3.03;;;2.73;;
1300;SDS011;67431;48.806;9.160;2023-02-18T18:40:28;3.87;;;2.90;;
1300;SDS011;67431;48.806;9.160;2023-02-18T18:42:56;6.90;;;3.10;;
1300;SDS011;67431;48.806;9.160;2023-02-18T18:45:33;2.67;;;2.40;;